createdAt,value
2023-05-14T00:00:21.998Z,47.20
2023-05-14T00:02:48.806Z,45.13
2023-05-14T00:05:15.691Z,46.50
2023-05-14T00:07:42.173Z,50.90
2023-05-14T00:10:09.110Z,45.97
2023-05-14T00:12:35.738Z,46.93
2023-05-14T00:15:02.652Z,50.37
2023-05-14T00:17:29.234Z,46.60
2023-05-14T00:19:55.775Z,47.87
2023-05-14T00:22:22.357Z,54.60
2023-05-14T00:24:53.163Z,52.43
2023-05-14T00:27:19.683Z,53.03
2023-05-14T00:29:46.214Z,53.80
2023-05-14T00:32:12.709Z,51.77
2023-05-14T00:34:39.188Z,51.17
2023-05-14T00:37:05.720Z,55.80
2023-05-14T00:39:32.328Z,56.70
2023-05-14T00:41:59.027Z,50.47
2023-05-14T00:44:25.687Z,53.37
2023-05-14T00:46:52.682Z,52.57
2023-05-14T00:49:19.196Z,51.57
2023-05-14T00:51:48.621Z,53.77
2023-05-14T00:54:17.237Z,54.90
2023-05-14T00:56:45.795Z,56.70
2023-05-14T00:59:12.612Z,51.50
2023-05-14T01:01:39.216Z,47.97
2023-05-14T01:04:07.453Z,47.00
2023-05-14T01:07:08.043Z,46.27
2023-05-14T01:09:46.327Z,48.10
2023-05-14T01:12:34.761Z,50.20
2023-05-14T01:15:21.815Z,53.87
2023-05-14T01:17:58.005Z,50.80
2023-05-14T01:20:26.122Z,54.17
2023-05-14T01:22:52.811Z,56.53
2023-05-14T01:25:19.267Z,56.10
2023-05-14T01:27:57.827Z,53.93
2023-05-14T01:30:34.544Z,53.00
2023-05-14T01:33:03.878Z,56.53
2023-05-14T01:35:30.888Z,57.17
2023-05-14T01:37:59.823Z,56.80
2023-05-14T01:40:27.102Z,54.47
2023-05-14T01:42:53.920Z,57.27
2023-05-14T01:45:21.580Z,51.33
2023-05-14T01:47:51.987Z,51.53
2023-05-14T01:50:22.565Z,54.60
2023-05-14T01:52:49.606Z,54.23
2023-05-14T01:55:16.176Z,54.47
2023-05-14T01:57:42.629Z,53.47
2023-05-14T02:00:09.477Z,53.50
2023-05-14T02:02:36.040Z,53.67
2023-05-14T02:05:03.915Z,51.33
2023-05-14T02:07:32.111Z,52.57
2023-05-14T02:09:58.595Z,54.97
2023-05-14T02:12:25.104Z,47.17
2023-05-14T02:14:51.615Z,50.30
2023-05-14T02:17:18.110Z,53.30
2023-05-14T02:19:45.128Z,48.67
2023-05-14T02:22:12.227Z,52.60
2023-05-14T02:24:38.845Z,51.80
2023-05-14T02:27:06.335Z,51.37
2023-05-14T02:29:32.833Z,51.67
2023-05-14T02:31:59.329Z,49.53
2023-05-14T02:34:26.025Z,47.73
2023-05-14T02:36:52.474Z,49.90
2023-05-14T02:39:18.936Z,51.37
2023-05-14T02:41:45.449Z,47.80
2023-05-14T02:44:11.960Z,49.37
2023-05-14T02:46:38.454Z,49.00
2023-05-14T02:49:04.958Z,50.40
2023-05-14T02:51:31.560Z,49.07
2023-05-14T02:53:58.111Z,47.13
2023-05-14T02:56:24.559Z,49.27
2023-05-14T02:58:51.014Z,47.77
2023-05-14T03:01:18.817Z,54.83
2023-05-14T03:03:45.865Z,51.13
2023-05-14T03:06:12.683Z,50.20
2023-05-14T03:08:39.154Z,52.43
2023-05-14T03:11:06.886Z,48.67
2023-05-14T03:13:33.429Z,48.07
2023-05-14T03:15:59.920Z,44.87
2023-05-14T03:18:28.373Z,47.37
2023-05-14T03:20:54.888Z,48.33
2023-05-14T03:23:21.360Z,49.30
2023-05-14T03:25:47.798Z,51.50
2023-05-14T03:28:14.315Z,51.07
2023-05-14T03:30:40.944Z,50.07
2023-05-14T03:33:07.621Z,50.03
2023-05-14T03:35:34.102Z,50.77
2023-05-14T03:38:00.612Z,47.47
2023-05-14T03:40:27.161Z,48.43
2023-05-14T03:42:53.675Z,46.13
2023-05-14T03:45:20.177Z,47.47
2023-05-14T03:47:46.738Z,44.60
2023-05-14T03:50:13.259Z,48.70
2023-05-14T03:52:40.522Z,45.60
2023-05-14T03:55:07.403Z,43.80
2023-05-14T03:57:33.992Z,42.33
2023-05-14T04:00:00.583Z,44.97
2023-05-14T04:02:27.336Z,45.37
2023-05-14T04:04:53.890Z,49.33
2023-05-14T04:07:20.448Z,46.90
2023-05-14T04:09:46.907Z,45.63
2023-05-14T04:12:13.585Z,41.70
2023-05-14T04:14:40.238Z,47.43
2023-05-14T04:17:06.705Z,42.13
2023-05-14T04:19:33.158Z,47.03
2023-05-14T04:21:59.620Z,44.30
2023-05-14T04:24:26.089Z,45.37
2023-05-14T04:26:52.556Z,45.00
2023-05-14T04:29:19.012Z,44.00
2023-05-14T04:31:46.322Z,43.77
2023-05-14T04:34:12.884Z,42.43
2023-05-14T04:36:40.238Z,40.33
2023-05-14T04:39:07.082Z,40.77
2023-05-14T04:41:33.562Z,40.50
2023-05-14T04:44:01.869Z,39.00
2023-05-14T04:46:28.701Z,37.80
2023-05-14T04:48:56.471Z,40.70
2023-05-14T04:51:23.361Z,41.17
2023-05-14T04:53:49.856Z,39.07
2023-05-14T04:56:16.311Z,41.20
2023-05-14T04:58:42.811Z,39.67
2023-05-14T05:01:09.343Z,42.40
2023-05-14T05:03:35.941Z,38.60
2023-05-14T05:06:02.434Z,40.13
2023-05-14T05:08:29.304Z,38.87
2023-05-14T05:10:55.790Z,36.97
2023-05-14T05:13:22.241Z,38.17
2023-05-14T05:15:48.711Z,38.50
2023-05-14T05:18:15.321Z,36.77
2023-05-14T05:20:41.767Z,39.53
2023-05-14T05:23:08.240Z,39.50
2023-05-14T05:25:34.705Z,37.17
2023-05-14T05:28:01.162Z,38.73
2023-05-14T05:30:27.806Z,35.90
2023-05-14T05:32:54.355Z,38.60
2023-05-14T05:35:20.896Z,40.30
2023-05-14T05:37:47.384Z,33.03
2023-05-14T05:40:14.419Z,34.57
2023-05-14T05:42:41.476Z,34.63
2023-05-14T05:45:08.428Z,34.93
2023-05-14T05:47:34.979Z,36.77
2023-05-14T05:50:01.488Z,37.33
2023-05-14T05:52:27.987Z,37.73
2023-05-14T05:54:54.438Z,35.17
2023-05-14T05:57:25.110Z,35.53
2023-05-14T05:59:53.163Z,34.23
2023-05-14T06:02:20.319Z,31.00
2023-05-14T06:04:46.876Z,32.77
2023-05-14T06:07:13.355Z,33.40
2023-05-14T06:09:39.821Z,31.83
2023-05-14T06:12:06.684Z,33.10
2023-05-14T06:14:33.140Z,33.70
2023-05-14T06:16:59.904Z,32.67
2023-05-14T06:19:26.503Z,32.37
2023-05-14T06:21:52.966Z,31.60
2023-05-14T06:24:20.351Z,31.63
2023-05-14T06:26:46.862Z,28.80
2023-05-14T06:29:13.365Z,31.47
2023-05-14T06:31:39.876Z,30.90
2023-05-14T06:34:06.364Z,35.13
2023-05-14T06:36:32.875Z,32.87
2023-05-14T06:38:59.513Z,35.40
2023-05-14T06:41:26.242Z,34.27
2023-05-14T06:43:52.716Z,35.63
2023-05-14T06:46:19.167Z,34.20
2023-05-14T06:48:45.885Z,36.60
2023-05-14T06:51:13.365Z,39.53
2023-05-14T06:53:40.730Z,36.40
2023-05-14T06:56:07.847Z,40.43
2023-05-14T06:58:34.357Z,40.57
2023-05-14T07:01:00.914Z,37.80
2023-05-14T07:03:27.575Z,37.90
2023-05-14T07:05:54.026Z,37.07
2023-05-14T07:08:20.492Z,39.23
2023-05-14T07:10:46.937Z,39.47
2023-05-14T07:13:13.611Z,32.87
2023-05-14T07:15:40.065Z,43.13
2023-05-14T07:18:06.581Z,42.60
2023-05-14T07:20:33.703Z,47.07
2023-05-14T07:23:00.272Z,45.77
2023-05-14T07:25:26.756Z,32.87
2023-05-14T07:27:53.274Z,66.33
2023-05-14T07:30:20.038Z,48.83
2023-05-14T07:32:46.578Z,55.03
2023-05-14T07:35:13.150Z,52.80
2023-05-14T07:37:39.695Z,49.73
2023-05-14T07:40:06.925Z,75.87
2023-05-14T07:42:37.137Z,67.23
2023-05-14T07:45:04.594Z,84.87
2023-05-14T07:47:31.293Z,123.03
2023-05-14T07:49:58.285Z,97.70
2023-05-14T07:52:24.913Z,107.30
2023-05-14T07:54:52.096Z,107.37
2023-05-14T07:57:19.787Z,136.23
2023-05-14T07:59:47.442Z,103.37
2023-05-14T08:02:16.109Z,123.03
2023-05-14T08:04:42.813Z,176.83
2023-05-14T08:07:09.421Z,116.40
2023-05-14T08:09:36.111Z,119.13
2023-05-14T08:12:02.896Z,121.00
2023-05-14T08:14:29.451Z,109.40
2023-05-14T08:16:56.144Z,118.17
2023-05-14T08:19:24.384Z,117.57
2023-05-14T08:21:51.486Z,122.70
2023-05-14T08:24:18.983Z,229.63
2023-05-14T08:26:45.503Z,163.00
2023-05-14T08:29:13.998Z,135.60
2023-05-14T08:31:42.353Z,126.47
2023-05-14T08:34:08.953Z,133.67
2023-05-14T08:36:35.555Z,123.33
2023-05-14T08:39:02.437Z,117.50
2023-05-14T08:41:28.983Z,114.97
2023-05-14T08:44:05.546Z,106.17
2023-05-14T08:46:32.538Z,113.13
2023-05-14T08:49:28.258Z,148.67
2023-05-14T08:51:55.648Z,156.33
2023-05-14T08:54:23.811Z,143.73
2023-05-14T08:56:51.932Z,131.27
2023-05-14T08:59:18.858Z,142.93
2023-05-14T09:01:49.612Z,119.20
2023-05-14T09:04:20.462Z,196.57
2023-05-14T09:06:49.427Z,91.37
2023-05-14T09:09:16.288Z,107.37
2023-05-14T09:11:46.029Z,114.30
2023-05-14T09:14:12.525Z,203.13
2023-05-14T09:16:40.497Z,112.80
2023-05-14T09:19:07.420Z,111.57
2023-05-14T09:21:34.654Z,154.97
2023-05-14T09:24:01.430Z,156.73
2023-05-14T09:26:32.090Z,94.83
2023-05-14T09:29:02.104Z,178.67
2023-05-14T09:31:33.208Z,83.90
2023-05-14T09:34:00.667Z,105.73
2023-05-14T09:36:27.452Z,134.27
2023-05-14T09:38:56.828Z,119.67
2023-05-14T09:41:24.434Z,112.73
2023-05-14T09:43:51.730Z,108.70
2023-05-14T09:46:18.348Z,114.00
2023-05-14T09:48:45.981Z,129.23
2023-05-14T09:51:13.383Z,131.03
2023-05-14T09:53:41.298Z,127.07
2023-05-14T09:56:07.796Z,132.13
2023-05-14T09:58:34.336Z,129.57
2023-05-14T10:01:01.957Z,128.03
2023-05-14T10:03:30.428Z,130.77
2023-05-14T10:06:01.412Z,126.13
2023-05-14T10:08:31.123Z,148.10
2023-05-14T10:10:58.933Z,164.47
2023-05-14T10:13:30.993Z,175.20
2023-05-14T10:16:04.485Z,123.67
2023-05-14T10:18:31.924Z,105.40
2023-05-14T10:21:05.786Z,133.20
2023-05-14T10:23:33.347Z,120.30
2023-05-14T10:26:00.223Z,128.50
2023-05-14T10:28:27.464Z,113.10
2023-05-14T10:30:54.567Z,109.03
2023-05-14T10:33:21.343Z,198.43
2023-05-14T10:36:00.595Z,117.87
2023-05-14T10:38:28.588Z,123.97
2023-05-14T10:40:57.892Z,117.10
2023-05-14T10:43:27.597Z,120.70
2023-05-14T10:45:54.266Z,175.33
2023-05-14T10:48:21.312Z,120.93
2023-05-14T10:50:48.634Z,104.00
2023-05-14T10:53:15.162Z,113.33
2023-05-14T10:55:43.220Z,119.20
2023-05-14T10:58:10.905Z,103.07
2023-05-14T11:00:38.087Z,85.87
2023-05-14T11:03:06.110Z,89.60
2023-05-14T11:05:37.168Z,164.40
2023-05-14T11:08:07.690Z,110.87
2023-05-14T11:10:35.602Z,112.60
2023-05-14T11:13:02.583Z,121.20
2023-05-14T11:15:29.417Z,131.67
2023-05-14T11:17:56.086Z,111.93
2023-05-14T11:20:22.890Z,136.07
2023-05-14T11:22:53.062Z,118.83
2023-05-14T11:25:19.895Z,114.17
2023-05-14T11:27:47.487Z,150.33
2023-05-14T11:30:15.497Z,116.10
2023-05-14T11:32:43.727Z,118.50
2023-05-14T11:35:10.330Z,120.80
2023-05-14T11:37:36.919Z,125.27
2023-05-14T11:40:09.059Z,130.87
2023-05-14T11:42:36.751Z,123.13
2023-05-14T11:45:03.563Z,119.73
2023-05-14T11:47:31.109Z,95.57
2023-05-14T11:49:57.603Z,135.83
2023-05-14T11:52:24.261Z,138.87
2023-05-14T11:54:51.078Z,134.43
2023-05-14T11:57:19.631Z,154.83
2023-05-14T11:59:46.927Z,140.30
2023-05-14T12:02:15.244Z,196.10
2023-05-14T12:04:42.398Z,151.00
2023-05-14T12:07:13.695Z,155.90
2023-05-14T12:09:45.049Z,161.83
2023-05-14T12:12:12.818Z,169.00
2023-05-14T12:14:41.710Z,305.00
2023-05-14T12:17:20.152Z,240.60
2023-05-14T12:19:49.915Z,234.03
2023-05-14T12:22:21.110Z,179.00
2023-05-14T12:24:57.664Z,259.57
2023-05-14T12:27:26.361Z,172.60
2023-05-14T12:30:19.940Z,155.63
2023-05-14T12:32:52.639Z,164.70
2023-05-14T12:35:21.113Z,158.97
2023-05-14T12:37:47.634Z,169.57
2023-05-14T12:40:14.131Z,135.97
2023-05-14T12:42:40.892Z,133.87
2023-05-14T12:45:08.615Z,106.30
2023-05-14T12:47:44.732Z,125.60
2023-05-14T12:50:11.428Z,139.70
2023-05-14T12:52:39.914Z,124.57
2023-05-14T12:55:10.009Z,152.03
2023-05-14T12:57:38.317Z,178.63
2023-05-14T13:00:08.555Z,159.57
2023-05-14T13:02:42.525Z,176.40
2023-05-14T13:05:10.738Z,171.97
2023-05-14T13:07:37.521Z,131.00
2023-05-14T13:10:05.889Z,115.43
2023-05-14T13:12:32.597Z,124.83
2023-05-14T13:14:59.064Z,114.90
2023-05-14T13:17:25.607Z,111.00
2023-05-14T13:19:52.100Z,114.33
2023-05-14T13:22:18.968Z,110.17
2023-05-14T13:24:45.722Z,108.77
2023-05-14T13:27:14.574Z,117.30
2023-05-14T13:29:41.757Z,110.90
2023-05-14T13:32:09.039Z,123.27
2023-05-14T13:34:36.666Z,115.40
2023-05-14T13:37:04.119Z,112.27
2023-05-14T13:39:30.898Z,121.00
2023-05-14T13:41:57.331Z,125.77
2023-05-14T13:44:24.527Z,127.50
2023-05-14T13:46:51.199Z,131.57
2023-05-14T13:49:17.878Z,130.40
2023-05-14T13:51:44.631Z,161.53
2023-05-14T13:54:11.180Z,118.23
2023-05-14T13:56:37.727Z,122.27
2023-05-14T13:59:04.388Z,130.43
2023-05-14T14:01:31.737Z,115.67
2023-05-14T14:03:58.413Z,112.80
2023-05-14T14:06:27.352Z,114.60
2023-05-14T14:08:53.979Z,121.03
2023-05-14T14:11:20.676Z,105.10
2023-05-14T14:13:47.144Z,113.60
2023-05-14T14:16:13.679Z,117.07
2023-05-14T14:18:40.330Z,109.17
2023-05-14T14:21:06.844Z,105.87
2023-05-14T14:23:33.361Z,127.17
2023-05-14T14:26:00.525Z,117.67
2023-05-14T14:28:27.001Z,115.57
2023-05-14T14:30:54.442Z,119.20
2023-05-14T14:33:20.979Z,123.60
2023-05-14T14:35:53.729Z,122.57
2023-05-14T14:38:20.219Z,152.57
2023-05-14T14:40:46.914Z,119.13
2023-05-14T14:43:13.380Z,117.47
2023-05-14T14:45:39.976Z,101.93
2023-05-14T14:48:30.923Z,122.20
2023-05-14T14:50:57.723Z,111.93
2023-05-14T14:53:25.132Z,96.27
2023-05-14T14:55:51.981Z,113.23
2023-05-14T14:58:19.540Z,112.43
2023-05-14T15:00:46.102Z,111.43
2023-05-14T15:03:12.868Z,111.03
2023-05-14T15:05:39.502Z,144.67
2023-05-14T15:08:06.170Z,110.30
2023-05-14T15:10:32.893Z,108.57
2023-05-14T15:12:59.883Z,121.00
2023-05-14T15:15:26.533Z,111.57
2023-05-14T15:17:53.196Z,117.50
2023-05-14T15:20:19.789Z,141.03
2023-05-14T15:22:46.302Z,156.47
2023-05-14T15:25:12.810Z,109.57
2023-05-14T15:27:39.503Z,113.47
2023-05-14T15:30:07.495Z,116.53
2023-05-14T15:32:34.092Z,104.13
2023-05-14T15:35:01.173Z,116.10
2023-05-14T15:37:27.755Z,94.27
2023-05-14T15:39:54.343Z,103.13
2023-05-14T15:42:21.077Z,107.53
2023-05-14T15:44:47.570Z,84.53
2023-05-14T15:47:14.030Z,99.90
2023-05-14T15:49:40.507Z,100.43
2023-05-14T15:52:07.244Z,111.87
2023-05-14T15:54:34.053Z,140.73
2023-05-14T15:57:01.006Z,109.47
2023-05-14T15:59:27.550Z,109.90
2023-05-14T16:01:54.062Z,101.07
2023-05-14T16:04:20.636Z,129.90
2023-05-14T16:06:47.146Z,102.63
2023-05-14T16:09:13.604Z,103.03
2023-05-14T16:11:40.088Z,101.43
2023-05-14T16:14:06.900Z,102.83
2023-05-14T16:16:33.449Z,102.27
2023-05-14T16:19:00.185Z,98.40
2023-05-14T16:21:27.337Z,93.17
2023-05-14T16:23:53.955Z,107.17
2023-05-14T16:26:20.768Z,110.50
2023-05-14T16:28:47.388Z,92.90
2023-05-14T16:31:15.354Z,101.63
2023-05-14T16:33:42.031Z,100.63
2023-05-14T16:36:08.971Z,94.33
2023-05-14T16:38:41.336Z,103.73
2023-05-14T16:41:11.201Z,86.07
2023-05-14T16:43:37.736Z,85.90
2023-05-14T16:46:04.414Z,86.57
2023-05-14T16:48:30.908Z,94.50
2023-05-14T16:50:59.432Z,83.83
2023-05-14T16:53:26.138Z,84.10
2023-05-14T16:55:52.779Z,92.90
2023-05-14T16:58:19.198Z,81.70
2023-05-14T17:00:45.852Z,113.63
2023-05-14T17:03:12.316Z,95.83
2023-05-14T17:05:38.820Z,90.60
2023-05-14T17:08:05.903Z,86.77
2023-05-14T17:10:33.331Z,90.93
2023-05-14T17:13:00.290Z,83.47
2023-05-14T17:15:26.801Z,90.47
2023-05-14T17:17:53.454Z,93.13
2023-05-14T17:20:20.094Z,93.77
2023-05-14T17:22:46.637Z,92.53
2023-05-14T17:25:13.147Z,101.80
2023-05-14T17:27:39.606Z,86.93
2023-05-14T17:30:06.865Z,92.97
2023-05-14T17:32:33.528Z,97.93
2023-05-14T17:35:00.118Z,87.97
2023-05-14T17:37:26.702Z,81.23
2023-05-14T17:39:53.279Z,87.03
2023-05-14T17:42:19.787Z,84.47
2023-05-14T17:44:46.332Z,85.97
2023-05-14T17:47:13.114Z,88.80
2023-05-14T17:49:39.724Z,82.90
2023-05-14T17:52:06.655Z,80.03
2023-05-14T17:54:33.211Z,78.33
2023-05-14T17:56:59.665Z,88.03
2023-05-14T17:59:26.269Z,80.50
2023-05-14T18:01:52.790Z,75.77
2023-05-14T18:04:20.002Z,76.30
2023-05-14T18:06:46.485Z,78.43
2023-05-14T18:09:13.277Z,86.73
2023-05-14T18:11:39.813Z,72.93
2023-05-14T18:14:06.381Z,70.17
2023-05-14T18:16:32.896Z,77.67
2023-05-14T18:19:00.406Z,75.53
2023-05-14T18:21:26.948Z,74.73
2023-05-14T18:23:53.389Z,68.17
2023-05-14T18:26:21.930Z,78.27
2023-05-14T18:28:48.673Z,67.83
2023-05-14T18:31:15.279Z,68.40
2023-05-14T18:33:41.771Z,66.37
2023-05-14T18:36:08.292Z,72.43
2023-05-14T18:38:34.780Z,65.90
2023-05-14T18:41:01.316Z,61.07
2023-05-14T18:43:27.850Z,68.37
2023-05-14T18:45:54.378Z,72.13
2023-05-14T18:48:20.958Z,65.10
2023-05-14T18:50:47.688Z,64.00
2023-05-14T18:53:14.248Z,72.00
2023-05-14T18:55:40.873Z,67.33
2023-05-14T18:58:08.317Z,71.00
2023-05-14T19:00:34.883Z,66.40
2023-05-14T19:03:01.535Z,67.90
2023-05-14T19:05:31.182Z,73.27
2023-05-14T19:07:59.576Z,71.43
2023-05-14T19:10:38.701Z,66.13
2023-05-14T19:13:06.647Z,72.47
2023-05-14T19:15:34.481Z,68.30
2023-05-14T19:18:04.352Z,65.77
2023-05-14T19:20:39.041Z,68.17
2023-05-14T19:23:14.930Z,68.47
2023-05-14T19:26:01.703Z,57.00
2023-05-14T19:28:29.231Z,63.57
2023-05-14T19:30:57.588Z,59.27
2023-05-14T19:33:33.109Z,51.40
2023-05-14T19:36:04.003Z,50.17
2023-05-14T19:38:42.555Z,64.73
2023-05-14T19:41:17.323Z,55.60
2023-05-14T19:43:45.549Z,48.37
2023-05-14T19:46:20.761Z,50.53
2023-05-14T19:48:52.770Z,62.03
2023-05-14T19:51:26.677Z,51.67
2023-05-14T19:53:54.061Z,56.97
2023-05-14T19:56:26.467Z,45.80
2023-05-14T19:58:58.146Z,47.77
2023-05-14T20:01:26.109Z,43.10
2023-05-14T20:03:56.532Z,45.37
2023-05-14T20:06:27.525Z,48.97
2023-05-14T20:09:04.642Z,58.70
2023-05-14T20:11:32.458Z,50.73
2023-05-14T20:14:01.015Z,50.87
2023-05-14T20:16:28.932Z,58.57
2023-05-14T20:18:57.882Z,51.80
2023-05-14T20:21:24.872Z,49.10
2023-05-14T20:23:53.881Z,59.97
2023-05-14T20:26:22.241Z,55.97
2023-05-14T20:28:48.942Z,61.10
2023-05-14T20:31:15.534Z,51.97
2023-05-14T20:33:42.049Z,50.80
2023-05-14T20:36:08.606Z,56.80
2023-05-14T20:38:35.209Z,48.17
2023-05-14T20:41:01.898Z,45.20
2023-05-14T20:43:28.604Z,53.37
2023-05-14T20:45:58.012Z,57.27
2023-05-14T20:48:24.631Z,53.70
2023-05-14T20:50:51.969Z,46.43
2023-05-14T20:53:18.563Z,53.07
2023-05-14T20:55:45.119Z,55.10
2023-05-14T20:58:11.604Z,49.23
2023-05-14T21:00:39.484Z,49.17
2023-05-14T21:03:06.172Z,49.60
2023-05-14T21:05:32.902Z,56.27
2023-05-14T21:07:59.615Z,52.30
2023-05-14T21:10:26.424Z,61.03
2023-05-14T21:12:53.055Z,55.57
2023-05-14T21:15:19.501Z,57.17
2023-05-14T21:17:49.542Z,58.23
2023-05-14T21:20:16.031Z,57.90
2023-05-14T21:22:42.554Z,57.53
2023-05-14T21:25:09.350Z,61.77
2023-05-14T21:27:35.902Z,54.33
2023-05-14T21:30:02.522Z,54.03
2023-05-14T21:32:29.006Z,49.30
2023-05-14T21:34:56.197Z,47.73
2023-05-14T21:37:22.691Z,55.27
2023-05-14T21:39:49.175Z,44.97
2023-05-14T21:42:16.335Z,49.33
2023-05-14T21:44:42.815Z,43.30
2023-05-14T21:47:09.266Z,44.87
2023-05-14T21:49:35.800Z,45.60
2023-05-14T21:52:02.354Z,53.13
2023-05-14T21:54:28.848Z,44.00
2023-05-14T21:56:55.578Z,50.37
2023-05-14T21:59:22.615Z,55.93
2023-05-14T22:04:19.025Z,55.13
2023-05-14T22:06:45.618Z,54.57
2023-05-14T22:09:12.143Z,51.50
2023-05-14T22:11:38.605Z,51.83
2023-05-14T22:14:05.075Z,51.43
2023-05-14T22:16:33.058Z,45.90
2023-05-14T22:18:59.685Z,51.23
2023-05-14T22:21:26.146Z,51.90
2023-05-14T22:23:52.667Z,54.00
2023-05-14T22:26:19.574Z,51.87
2023-05-14T22:28:46.141Z,53.33
2023-05-14T22:31:12.691Z,52.07
2023-05-14T22:33:39.238Z,57.33
2023-05-14T22:36:07.031Z,53.07
2023-05-14T22:38:34.277Z,55.33
2023-05-14T22:41:00.839Z,48.20
2023-05-14T22:43:27.339Z,50.07
2023-05-14T22:45:53.934Z,47.47
2023-05-14T22:48:20.390Z,44.83
2023-05-14T22:50:46.956Z,46.57
2023-05-14T22:53:13.422Z,53.50
2023-05-14T22:55:39.934Z,53.50
2023-05-14T22:58:07.001Z,49.27
2023-05-14T23:00:33.455Z,53.83
2023-05-14T23:02:59.909Z,41.43
2023-05-14T23:05:26.666Z,51.67
2023-05-14T23:07:53.609Z,47.23
2023-05-14T23:10:20.077Z,45.30
2023-05-14T23:12:46.527Z,50.83
2023-05-14T23:15:13.028Z,47.17
2023-05-14T23:17:39.926Z,46.87
2023-05-14T23:20:07.327Z,48.00
2023-05-14T23:22:33.802Z,41.73
2023-05-14T23:25:00.400Z,41.97
2023-05-14T23:27:27.198Z,40.97
2023-05-14T23:29:53.669Z,39.60
2023-05-14T23:32:20.158Z,44.97
2023-05-14T23:34:46.632Z,49.53
2023-05-14T23:37:13.622Z,46.20
2023-05-14T23:39:40.216Z,49.60
2023-05-14T23:42:06.792Z,45.77
2023-05-14T23:44:33.260Z,47.77
2023-05-14T23:46:59.830Z,46.53
2023-05-14T23:49:26.394Z,47.60
2023-05-14T23:51:52.888Z,47.53
2023-05-14T23:54:19.372Z,47.93
2023-05-14T23:56:45.854Z,43.00
2023-05-14T23:59:12.396Z,43.23
